Time;durP1;ratioP1;P1;durP2;ratioP2;P2;SDS_P1;SDS_P2;PMS_P1;PMS_P2;Temp;Humidity;BMP_temperature;BMP_pressure;BME280_temperature;BME280_humidity;BME280_pressure;Samples;Min_cycle;Max_cycle;Signal;HPM_P1;HPM_P2
2024/02/24 00:02:06;;;;;;;1.55;0.63;;;8.00;80.50;;;;;;5032877;28;20039;-67
2024/02/24 00:04:32;;;;;;;1.20;0.73;;;7.90;80.50;;;;;;5026922;28;20048;-67
2024/02/24 00:06:58;;;;;;;1.02;0.70;;;7.90;80.60;;;;;;5030305;28;20488;-67
2024/02/24 00:09:24;;;;;;;0.35;0.35;;;7.90;80.70;;;;;;5029178;28;20033;-67
2024/02/24 00:11:50;;;;;;;0.40;0.40;;;7.80;80.70;;;;;;5028432;28;20029;-68
2024/02/24 00:14:16;;;;;;;0.47;0.47;;;7.80;80.80;;;;;;5031611;28;20107;-65
2024/02/24 00:16:42;;;;;;;1.23;0.60;;;7.80;81.40;;;;;;5031903;28;20121;-66
2024/02/24 00:19:08;;;;;;;3.08;0.82;;;7.80;80.90;;;;;;5033278;28;20040;-65
2024/02/24 00:21:34;;;;;;;0.88;0.75;;;7.70;80.90;;;;;;5030259;28;20044;-65
2024/02/24 00:24:00;;;;;;;0.82;0.70;;;7.80;81.00;;;;;;5029440;28;20396;-65
2024/02/24 00:26:26;;;;;;;0.93;0.60;;;7.80;81.00;;;;;;5028469;28;20025;-66
2024/02/24 00:28:52;;;;;;;0.90;0.52;;;7.70;81.00;;;;;;5030871;28;20483;-68
2024/02/24 00:31:18;;;;;;;1.10;0.65;;;7.70;81.00;;;;;;5030527;28;20133;-68
2024/02/24 00:33:44;;;;;;;0.50;0.50;;;7.70;81.10;;;;;;5031047;28;20447;-68
2024/02/24 00:36:10;;;;;;;2.15;1.00;;;7.70;81.00;;;;;;5031110;28;20056;-68
2024/02/24 00:38:36;;;;;;;3.10;0.75;;;7.60;81.10;;;;;;5030614;28;20060;-68
2024/02/24 00:41:02;;;;;;;0.63;0.63;;;7.60;81.20;;;;;;5030666;28;20033;-68
2024/02/24 00:43:28;;;;;;;0.65;0.65;;;7.60;81.30;;;;;;5030865;28;20030;-67
2024/02/24 00:45:54;;;;;;;0.93;0.40;;;7.60;81.30;;;;;;5031079;28;20045;-68
2024/02/24 00:48:20;;;;;;;0.73;0.60;;;7.60;81.30;;;;;;5023615;28;20077;-68
2024/02/24 00:50:46;;;;;;;0.55;0.55;;;7.60;81.30;;;;;;5029553;28;20385;-68
2024/02/24 00:53:12;;;;;;;1.30;0.98;;;7.60;81.30;;;;;;5030761;28;20052;-68
2024/02/24 00:55:38;;;;;;;2.20;0.60;;;7.60;81.20;;;;;;5030517;28;20200;-68
2024/02/24 00:58:04;;;;;;;0.40;0.40;;;7.60;81.10;;;;;;5012452;28;20087;-68
2024/02/24 01:00:30;;;;;;;0.93;0.30;;;7.50;81.30;;;;;;5023884;28;20022;-68
2024/02/24 01:02:56;;;;;;;1.08;0.60;;;7.50;81.40;;;;;;5033013;28;20456;-68
2024/02/24 01:05:22;;;;;;;1.00;0.70;;;7.50;81.40;;;;;;5034853;28;20358;-68
2024/02/24 01:07:48;;;;;;;0.77;0.40;;;7.50;81.30;;;;;;5037533;28;20040;-67
2024/02/24 01:10:14;;;;;;;1.02;0.60;;;7.50;81.30;;;;;;5032526;28;20029;-67
2024/02/24 01:12:40;;;;;;;0.70;0.45;;;7.50;81.40;;;;;;5033886;28;20392;-67
2024/02/24 01:15:06;;;;;;;0.60;0.47;;;7.50;81.40;;;;;;5033458;28;20025;-67
2024/02/24 01:17:32;;;;;;;0.70;0.30;;;7.50;81.30;;;;;;5032258;28;20061;-67
2024/02/24 01:19:58;;;;;;;1.02;0.68;;;7.50;81.40;;;;;;5033093;28;20030;-67
2024/02/24 01:22:24;;;;;;;0.77;0.43;;;7.50;81.40;;;;;;5034525;28;20033;-67
2024/02/24 01:24:51;;;;;;;1.25;0.88;;;7.50;81.50;;;;;;5032680;28;20029;-65
2024/02/24 01:27:17;;;;;;;0.98;0.73;;;7.50;81.40;;;;;;5032797;28;20025;-67
2024/02/24 01:29:43;;;;;;;0.95;0.50;;;7.50;81.30;;;;;;5031246;28;20030;-68
2024/02/24 01:32:09;;;;;;;1.40;0.93;;;7.50;81.30;;;;;;5049425;28;20025;-68
2024/02/24 01:34:35;;;;;;;0.60;0.40;;;7.40;81.20;;;;;;5034678;28;20388;-68
2024/02/24 01:37:01;;;;;;;1.02;0.82;;;7.40;81.10;;;;;;5033235;28;20124;-68
2024/02/24 01:39:27;;;;;;;0.60;0.50;;;7.40;81.20;;;;;;5034649;28;20037;-68
2024/02/24 01:41:53;;;;;;;0.52;0.45;;;7.30;81.10;;;;;;5034582;28;20119;-68
2024/02/24 01:44:19;;;;;;;0.57;0.57;;;7.30;81.10;;;;;;5033507;28;20112;-68
2024/02/24 01:46:47;;;;;;;0.73;0.47;;;7.20;81.10;;;;;;5033814;28;20085;-68
2024/02/24 01:49:13;;;;;;;1.02;0.55;;;7.10;81.00;;;;;;5034396;28;20029;-68
2024/02/24 01:51:41;;;;;;;0.43;0.35;;;7.10;81.10;;;;;;5033950;28;20052;-68
2024/02/24 01:54:08;;;;;;;2.38;0.80;;;7.00;81.20;;;;;;5033020;28;20488;-68
2024/02/24 01:56:37;;;;;;;0.75;0.73;;;7.00;81.20;;;;;;5034143;28;20393;-68
2024/02/24 01:59:04;;;;;;;3.13;0.60;;;7.00;81.10;;;;;;5031440;28;20028;-68
2024/02/24 02:01:30;;;;;;;0.57;0.55;;;7.00;81.00;;;;;;5033270;28;20041;-67
2024/02/24 02:03:57;;;;;;;1.33;1.05;;;6.90;81.00;;;;;;5033177;28;20032;-67
2024/02/24 02:06:28;;;;;;;1.13;0.65;;;6.90;81.10;;;;;;5032473;28;20071;-68
2024/02/24 02:08:55;;;;;;;0.82;0.73;;;6.90;81.20;;;;;;5032974;28;20025;-68
2024/02/24 02:11:21;;;;;;;1.10;0.88;;;6.80;81.30;;;;;;5033425;28;20075;-68
2024/02/24 02:13:47;;;;;;;0.38;0.30;;;6.90;81.30;;;;;;5036651;28;20481;-68
2024/02/24 02:16:13;;;;;;;0.60;0.50;;;6.80;81.30;;;;;;5021861;28;20544;-68
2024/02/24 02:18:39;;;;;;;1.75;0.50;;;6.80;81.30;;;;;;5031002;28;20473;-68
2024/02/24 02:21:07;;;;;;;0.43;0.43;;;6.80;81.30;;;;;;5031795;28;20571;-68
2024/02/24 02:23:33;;;;;;;0.60;0.40;;;6.80;81.30;;;;;;5032076;28;20116;-67
2024/02/24 02:25:59;;;;;;;0.77;0.60;;;6.80;81.30;;;;;;5043761;28;20040;-67
2024/02/24 02:28:25;;;;;;;0.77;0.63;;;6.80;81.20;;;;;;5031479;28;20374;-67
2024/02/24 02:30:51;;;;;;;3.53;1.38;;;6.80;81.20;;;;;;5032564;28;20028;-67
2024/02/24 02:33:17;;;;;;;0.85;0.77;;;6.80;81.20;;;;;;5033416;28;20437;-67
2024/02/24 02:35:43;;;;;;;0.52;0.52;;;6.80;81.20;;;;;;5032782;28;20065;-67
2024/02/24 02:38:10;;;;;;;0.38;0.38;;;6.80;81.20;;;;;;5032634;28;20483;-67
2024/02/24 02:40:36;;;;;;;1.27;0.80;;;6.70;81.20;;;;;;5031510;28;20452;-67
2024/02/24 02:43:02;;;;;;;1.35;0.50;;;6.70;81.30;;;;;;5032276;28;20040;-68
2024/02/24 02:45:28;;;;;;;0.85;0.65;;;6.80;81.50;;;;;;5032398;28;20143;-67
2024/02/24 02:47:54;;;;;;;2.53;0.93;;;6.80;81.50;;;;;;5032475;28;20037;-68
2024/02/24 02:50:21;;;;;;;0.95;0.40;;;6.80;81.40;;;;;;5037718;28;20033;-67
2024/02/24 02:52:47;;;;;;;0.77;0.75;;;6.80;81.40;;;;;;5032412;28;20025;-67
2024/02/24 02:55:13;;;;;;;2.75;0.70;;;6.80;81.40;;;;;;5032312;28;20740;-67
2024/02/24 02:57:39;;;;;;;0.65;0.65;;;6.80;81.40;;;;;;5032535;28;20087;-67
2024/02/24 03:00:06;;;;;;;0.68;0.52;;;6.80;81.30;;;;;;5036252;28;20030;-68
2024/02/24 03:02:32;;;;;;;1.75;0.63;;;6.80;81.30;;;;;;5020346;28;20037;-67
2024/02/24 03:04:59;;;;;;;0.57;0.40;;;6.80;81.20;;;;;;5031090;28;20504;-67
2024/02/24 03:07:25;;;;;;;1.50;0.65;;;6.80;81.30;;;;;;5032248;28;20018;-68
2024/02/24 03:09:51;;;;;;;1.08;0.70;;;6.70;81.20;;;;;;5032566;28;20112;-67
2024/02/24 03:12:16;;;;;;;1.13;0.60;;;6.70;81.20;;;;;;5028226;28;20117;-68
2024/02/24 03:14:43;;;;;;;0.50;0.50;;;6.70;81.20;;;;;;5032712;28;20037;-68
2024/02/24 03:17:09;;;;;;;0.65;0.47;;;6.70;81.20;;;;;;5033059;28;20575;-67
2024/02/24 03:19:35;;;;;;;0.50;0.47;;;6.70;81.40;;;;;;5030011;28;20033;-67
2024/02/24 03:22:01;;;;;;;0.50;0.50;;;6.60;81.40;;;;;;5028918;28;20397;-65
2024/02/24 03:24:27;;;;;;;0.55;0.55;;;6.60;81.30;;;;;;5024868;28;20030;-68
2024/02/24 03:26:53;;;;;;;1.10;0.50;;;6.60;81.40;;;;;;5036848;28;20034;-65
2024/02/24 03:29:19;;;;;;;0.60;0.60;;;6.60;81.40;;;;;;5035237;28;20057;-65
2024/02/24 03:31:45;;;;;;;0.60;0.30;;;6.60;81.40;;;;;;5028252;28;20029;-65
2024/02/24 03:34:12;;;;;;;1.88;0.80;;;6.60;81.20;;;;;;5028440;28;20033;-65
2024/02/24 03:36:38;;;;;;;0.40;0.40;;;6.50;81.30;;;;;;5029162;28;20033;-65
2024/02/24 03:39:03;;;;;;;0.65;0.45;;;6.50;81.40;;;;;;5031308;28;20100;-65
2024/02/24 03:41:33;;;;;;;0.90;0.70;;;6.50;81.40;;;;;;5030197;28;20508;-67
2024/02/24 03:43:59;;;;;;;0.73;0.50;;;6.50;81.40;;;;;;5031574;28;20032;-67
2024/02/24 03:46:25;;;;;;;0.68;0.60;;;6.50;81.40;;;;;;5033371;28;20100;-67
2024/02/24 03:48:51;;;;;;;0.75;0.63;;;6.50;81.40;;;;;;5035846;28;20029;-67
2024/02/24 03:51:17;;;;;;;0.32;0.32;;;6.50;81.40;;;;;;5030635;28;20026;-67
2024/02/24 03:53:43;;;;;;;0.50;0.50;;;6.50;81.30;;;;;;5030738;28;20041;-67
2024/02/24 03:56:09;;;;;;;0.50;0.50;;;6.50;81.30;;;;;;5030793;28;20076;-68
2024/02/24 03:58:35;;;;;;;3.65;0.73;;;6.50;81.30;;;;;;5030708;28;20029;-68
2024/02/24 04:01:02;;;;;;;0.75;0.65;;;6.50;81.30;;;;;;5031196;28;20030;-68
2024/02/24 04:03:28;;;;;;;0.88;0.45;;;6.50;81.30;;;;;;5030104;28;20037;-67
2024/02/24 04:05:54;;;;;;;0.50;0.50;;;6.50;81.30;;;;;;5036938;28;20022;-67
2024/02/24 04:08:20;;;;;;;1.13;0.60;;;6.40;81.20;;;;;;5029884;28;20030;-67
2024/02/24 04:10:46;;;;;;;1.15;0.85;;;6.40;81.20;;;;;;5060884;28;20033;-64
2024/02/24 04:13:12;;;;;;;0.68;0.68;;;6.40;81.30;;;;;;5028934;28;20798;-67
2024/02/24 04:15:44;;;;;;;0.70;0.60;;;6.40;81.30;;;;;;5042136;28;20516;-67
2024/02/24 04:18:12;;;;;;;0.40;0.40;;;6.30;81.30;;;;;;5030997;28;20028;-67
2024/02/24 04:20:38;;;;;;;1.45;0.65;;;6.40;81.40;;;;;;5030136;28;20066;-67
2024/02/24 04:23:04;;;;;;;0.40;0.38;;;6.30;81.30;;;;;;5029713;28;20061;-67
2024/02/24 04:25:30;;;;;;;0.65;0.65;;;6.30;81.30;;;;;;5031292;28;20083;-67
2024/02/24 04:27:56;;;;;;;4.30;0.98;;;6.30;81.30;;;;;;5029692;28;20479;-65
2024/02/24 04:30:22;;;;;;;0.82;0.55;;;6.30;81.40;;;;;;5031807;28;20443;-65
2024/02/24 04:32:48;;;;;;;2.20;0.90;;;6.20;81.50;;;;;;5033342;28;20484;-64
2024/02/24 04:35:14;;;;;;;0.57;0.40;;;6.20;81.40;;;;;;5034307;28;20465;-67
2024/02/24 04:37:41;;;;;;;0.63;0.40;;;6.20;81.40;;;;;;5034204;28;20033;-68
2024/02/24 04:40:07;;;;;;;0.65;0.65;;;6.20;81.40;;;;;;5035530;28;20520;-67
2024/02/24 04:42:33;;;;;;;1.52;0.65;;;6.20;81.30;;;;;;5036123;28;20044;-67
2024/02/24 04:44:59;;;;;;;0.95;0.80;;;6.20;81.30;;;;;;5034291;28;20025;-67
2024/02/24 04:47:28;;;;;;;1.85;0.82;;;6.20;81.20;;;;;;5033063;28;20046;-67
2024/02/24 04:49:54;;;;;;;0.55;0.50;;;6.20;81.30;;;;;;5029754;28;20056;-67
2024/02/24 04:52:20;;;;;;;1.58;0.88;;;6.10;81.30;;;;;;5029949;28;20030;-67
2024/02/24 04:54:47;;;;;;;0.55;0.55;;;6.10;81.30;;;;;;5033350;28;20039;-67
2024/02/24 04:57:13;;;;;;;0.85;0.60;;;6.20;81.30;;;;;;5040977;28;20045;-67
2024/02/24 04:59:39;;;;;;;1.13;0.63;;;6.20;81.30;;;;;;5048687;28;20401;-65
2024/02/24 05:02:05;;;;;;;2.80;0.80;;;6.30;81.40;;;;;;5034663;28;20025;-65
2024/02/24 05:04:31;;;;;;;1.25;0.95;;;6.30;81.50;;;;;;5033668;28;20052;-65
2024/02/24 05:06:57;;;;;;;0.63;0.60;;;6.30;81.50;;;;;;5037691;28;20033;-67
2024/02/24 05:09:23;;;;;;;1.02;0.65;;;6.30;81.50;;;;;;5036522;28;20099;-67
2024/02/24 05:11:49;;;;;;;0.80;0.60;;;6.40;81.50;;;;;;5016610;28;20038;-67
2024/02/24 05:14:18;;;;;;;0.80;0.40;;;6.50;81.50;;;;;;5034240;28;20494;-67
2024/02/24 05:16:44;;;;;;;1.15;1.05;;;6.50;81.40;;;;;;5033294;28;20035;-67
2024/02/24 05:19:10;;;;;;;1.30;0.80;;;6.60;81.50;;;;;;5032560;28;20121;-67
2024/02/24 05:21:37;;;;;;;0.57;0.47;;;6.60;81.50;;;;;;5034167;28;20037;-67
2024/02/24 05:24:03;;;;;;;2.58;1.15;;;6.60;81.60;;;;;;5033051;28;20040;-67
2024/02/24 05:26:30;;;;;;;1.20;0.68;;;6.70;81.70;;;;;;5032252;28;20030;-65
2024/02/24 05:28:56;;;;;;;0.52;0.50;;;6.70;81.80;;;;;;5025239;28;20022;-65
2024/02/24 05:31:23;;;;;;;1.27;0.82;;;6.70;81.90;;;;;;5033617;28;20378;-65
2024/02/24 05:33:51;;;;;;;2.92;0.93;;;6.70;81.90;;;;;;5027725;28;20064;-64
2024/02/24 05:36:20;;;;;;;0.70;0.70;;;6.80;82.00;;;;;;5032221;28;20044;-67
2024/02/24 05:38:46;;;;;;;0.95;0.70;;;6.80;82.10;;;;;;5034550;28;20564;-65
2024/02/24 05:41:12;;;;;;;1.63;0.90;;;6.90;82.10;;;;;;5034512;28;20128;-65
2024/02/24 05:43:38;;;;;;;0.70;0.70;;;6.90;82.10;;;;;;5036457;28;20140;-65
2024/02/24 05:46:08;;;;;;;1.30;0.82;;;6.90;82.20;;;;;;5031800;28;20059;-65
2024/02/24 05:48:37;;;;;;;1.65;0.93;;;7.00;82.30;;;;;;5029108;28;20033;-65
2024/02/24 05:51:08;;;;;;;2.88;1.15;;;7.00;82.30;;;;;;5030030;28;20065;-64
2024/02/24 05:53:35;;;;;;;0.75;0.60;;;7.00;82.30;;;;;;5031683;28;20484;-65
2024/02/24 05:56:01;;;;;;;1.27;0.65;;;7.00;82.30;;;;;;5034430;28;20018;-67
2024/02/24 05:58:27;;;;;;;1.58;0.90;;;7.00;82.40;;;;;;5033451;28;20036;-67
2024/02/24 06:00:53;;;;;;;1.38;0.70;;;7.00;82.40;;;;;;5042896;28;20040;-68
2024/02/24 06:03:19;;;;;;;1.33;0.80;;;7.10;82.50;;;;;;5044123;28;20489;-67
2024/02/24 06:05:44;;;;;;;1.05;0.95;;;7.10;82.50;;;;;;5033905;28;20037;-67
2024/02/24 06:08:11;;;;;;;1.55;1.27;;;7.10;82.60;;;;;;5032538;28;20485;-67
2024/02/24 06:10:37;;;;;;;1.08;0.98;;;7.10;82.60;;;;;;5049211;28;20034;-67
2024/02/24 06:13:04;;;;;;;0.90;0.60;;;7.20;82.60;;;;;;5032616;28;20061;-64
2024/02/24 06:15:30;;;;;;;1.00;0.52;;;7.20;82.60;;;;;;5031745;28;20025;-67
2024/02/24 06:17:56;;;;;;;0.90;0.50;;;7.30;82.70;;;;;;5032994;28;20045;-68
2024/02/24 06:20:22;;;;;;;1.05;0.63;;;7.30;82.70;;;;;;5033773;28;20056;-67
2024/02/24 06:22:48;;;;;;;1.17;0.93;;;7.20;82.50;;;;;;5033892;28;20087;-67
2024/02/24 06:25:14;;;;;;;1.67;0.75;;;7.30;82.60;;;;;;5032601;28;20568;-68
2024/02/24 06:27:40;;;;;;;2.05;0.98;;;7.30;82.60;;;;;;5033434;28;20104;-67
2024/02/24 06:30:07;;;;;;;1.05;0.50;;;7.30;82.70;;;;;;5032047;28;20392;-67
2024/02/24 06:32:33;;;;;;;1.50;0.75;;;7.30;82.80;;;;;;5031569;28;20041;-67
2024/02/24 06:34:59;;;;;;;1.42;0.70;;;7.40;82.90;;;;;;5030491;28;20519;-67
2024/02/24 06:37:24;;;;;;;1.25;0.60;;;7.40;82.90;;;;;;5033239;28;20030;-67
2024/02/24 06:39:50;;;;;;;1.42;0.73;;;7.40;82.90;;;;;;5033224;28;20120;-67
2024/02/24 06:42:16;;;;;;;1.10;0.60;;;7.40;82.90;;;;;;5033431;28;20029;-67
2024/02/24 06:44:41;;;;;;;1.10;0.47;;;7.40;82.90;;;;;;5033215;28;20041;-67
2024/02/24 06:47:08;;;;;;;1.15;0.73;;;7.40;82.90;;;;;;5031387;28;20050;-67
2024/02/24 06:49:34;;;;;;;1.33;1.02;;;7.40;82.90;;;;;;5031944;28;20029;-67
2024/02/24 06:52:00;;;;;;;0.90;0.45;;;7.40;83.00;;;;;;5032065;28;20026;-64
2024/02/24 06:54:25;;;;;;;1.13;0.60;;;7.40;83.00;;;;;;5034188;28;20118;-65
2024/02/24 06:56:51;;;;;;;1.55;0.90;;;7.40;83.10;;;;;;5031275;28;20392;-65
2024/02/24 06:59:16;;;;;;;0.65;0.65;;;7.50;83.10;;;;;;5030289;28;20105;-64
2024/02/24 07:01:42;;;;;;;1.20;0.63;;;7.50;83.20;;;;;;5031611;28;20434;-67
2024/02/24 07:04:08;;;;;;;2.58;0.77;;;7.40;83.10;;;;;;5029629;28;20378;-64
2024/02/24 07:06:34;;;;;;;0.85;0.63;;;7.50;83.20;;;;;;5032389;28;20037;-67
2024/02/24 07:08:59;;;;;;;0.40;0.40;;;7.50;83.30;;;;;;5031552;28;20033;-67
2024/02/24 07:11:25;;;;;;;0.40;0.40;;;7.50;83.20;;;;;;5032572;28;20045;-67
2024/02/24 07:13:51;;;;;;;1.33;1.05;;;7.50;83.20;;;;;;5032420;28;20029;-67
2024/02/24 07:16:16;;;;;;;1.38;0.60;;;7.50;83.20;;;;;;5032664;28;20045;-67
2024/02/24 07:18:42;;;;;;;0.63;0.63;;;7.60;83.20;;;;;;5033260;28;20409;-67
2024/02/24 07:21:08;;;;;;;0.63;0.40;;;7.60;83.20;;;;;;5031514;28;20030;-67
2024/02/24 07:23:33;;;;;;;0.63;0.47;;;7.60;83.20;;;;;;5032589;28;20120;-65
2024/02/24 07:26:00;;;;;;;1.52;1.05;;;7.60;83.20;;;;;;5031047;28;20080;-65
2024/02/24 07:28:27;;;;;;;0.90;0.70;;;7.70;83.30;;;;;;5031317;28;20029;-66
2024/02/24 07:30:52;;;;;;;0.90;0.70;;;7.70;83.30;;;;;;5035720;28;20024;-66
2024/02/24 07:33:18;;;;;;;2.85;1.25;;;7.70;83.30;;;;;;5032319;28;20071;-65
2024/02/24 07:35:44;;;;;;;1.33;1.10;;;7.80;83.30;;;;;;5032580;28;20033;-66
2024/02/24 07:38:09;;;;;;;0.85;0.60;;;7.80;83.30;;;;;;5032345;28;20018;-66
2024/02/24 07:40:35;;;;;;;1.00;0.80;;;7.80;83.30;;;;;;5032333;28;20034;-65
2024/02/24 07:43:01;;;;;;;1.92;0.77;;;7.80;83.40;;;;;;5032039;28;20056;-66
2024/02/24 07:45:27;;;;;;;0.77;0.57;;;7.80;83.50;;;;;;5032373;28;20060;-63
2024/02/24 07:47:54;;;;;;;1.80;1.00;;;7.80;83.50;;;;;;5028750;28;20115;-63
2024/02/24 07:50:20;;;;;;;1.30;0.63;;;7.90;83.60;;;;;;5031777;28;20033;-63
2024/02/24 07:52:45;;;;;;;0.38;0.38;;;7.90;83.60;;;;;;5028444;28;20396;-62
2024/02/24 07:55:11;;;;;;;0.90;0.90;;;7.90;83.60;;;;;;5032577;28;20451;-63
2024/02/24 07:57:37;;;;;;;1.20;0.80;;;7.90;83.70;;;;;;5028914;28;20424;-62
2024/02/24 08:00:04;;;;;;;2.53;0.85;;;7.90;83.70;;;;;;5030929;28;20032;-66
2024/02/24 08:02:33;;;;;;;1.98;0.60;;;8.00;83.80;;;;;;5031922;28;20440;-65
2024/02/24 08:04:59;;;;;;;3.38;0.82;;;8.00;84.30;;;;;;5031984;28;20431;-66
2024/02/24 08:07:24;;;;;;;2.05;1.10;;;8.00;83.70;;;;;;5031973;28;20034;-65
2024/02/24 08:09:50;;;;;;;1.00;0.73;;;8.00;83.60;;;;;;5030732;28;20400;-66
2024/02/24 08:12:16;;;;;;;0.93;0.70;;;8.00;83.60;;;;;;5025239;28;20030;-66
2024/02/24 08:14:41;;;;;;;1.60;0.95;;;8.10;83.60;;;;;;5029848;28;20043;-62
2024/02/24 08:17:07;;;;;;;0.60;0.60;;;8.10;83.60;;;;;;5030106;28;20048;-65
2024/02/24 08:19:34;;;;;;;1.17;0.63;;;8.20;83.60;;;;;;5063830;28;20032;-66
2024/02/24 08:22:03;;;;;;;2.20;1.00;;;8.30;83.60;;;;;;5031832;28;20425;-66
2024/02/24 08:24:28;;;;;;;0.63;0.52;;;8.30;83.40;;;;;;5031594;28;20500;-66
2024/02/24 08:26:54;;;;;;;1.15;0.77;;;8.40;83.90;;;;;;5063593;28;20026;-66
2024/02/24 08:29:20;;;;;;;0.77;0.65;;;8.50;83.20;;;;;;5031756;28;20029;-66
2024/02/24 08:31:46;;;;;;;5.15;0.98;;;8.50;83.20;;;;;;5031398;28;20048;-66
2024/02/24 08:34:15;;;;;;;0.98;0.85;;;8.60;83.20;;;;;;5033150;28;20032;-66
2024/02/24 08:36:40;;;;;;;2.33;1.30;;;8.60;83.10;;;;;;5030670;28;20108;-66
2024/02/24 08:39:06;;;;;;;1.55;1.13;;;8.60;83.00;;;;;;5025475;28;20130;-66
2024/02/24 08:41:33;;;;;;;1.42;0.60;;;8.50;83.00;;;;;;5031586;28;20065;-66
2024/02/24 08:44:01;;;;;;;2.40;0.70;;;8.50;83.10;;;;;;5030510;28;20025;-62
2024/02/24 08:46:27;;;;;;;0.55;0.43;;;8.50;83.20;;;;;;5029437;28;20056;-62
2024/02/24 08:48:54;;;;;;;1.08;1.00;;;8.50;83.10;;;;;;5027626;28;20392;-64
2024/02/24 08:51:21;;;;;;;0.90;0.52;;;8.60;83.20;;;;;;5029043;28;20436;-63
2024/02/24 08:53:47;;;;;;;0.65;0.57;;;8.60;83.20;;;;;;5027234;28;20504;-62
2024/02/24 08:56:17;;;;;;;1.17;0.65;;;8.70;83.10;;;;;;5030865;28;20026;-62
2024/02/24 08:58:43;;;;;;;0.75;0.47;;;8.60;82.90;;;;;;5026974;28;20492;-62
2024/02/24 09:01:08;;;;;;;1.52;0.77;;;8.60;82.90;;;;;;5045498;28;20025;-66
2024/02/24 09:03:34;;;;;;;1.10;0.68;;;8.50;82.90;;;;;;5031261;28;20091;-66
2024/02/24 09:06:00;;;;;;;2.45;0.80;;;8.50;82.90;;;;;;5030690;28;20037;-62
2024/02/24 09:08:26;;;;;;;0.80;0.60;;;8.50;83.00;;;;;;5030056;28;20041;-62
2024/02/24 09:10:52;;;;;;;1.10;0.77;;;8.50;83.10;;;;;;5026357;28;20323;-62
2024/02/24 09:13:18;;;;;;;0.60;0.50;;;8.50;83.00;;;;;;5026629;28;20033;-62
2024/02/24 09:15:44;;;;;;;0.85;0.52;;;8.60;82.90;;;;;;5028029;28;20025;-62
2024/02/24 09:18:09;;;;;;;0.88;0.75;;;8.60;82.80;;;;;;5026305;28;20473;-63
2024/02/24 09:20:36;;;;;;;1.35;0.80;;;8.70;82.80;;;;;;5034910;28;20117;-63
2024/02/24 09:23:02;;;;;;;2.00;1.00;;;8.70;82.50;;;;;;5037216;28;20514;-65
2024/02/24 09:25:28;;;;;;;3.08;0.73;;;8.70;82.60;;;;;;5038897;28;20095;-67
2024/02/24 09:27:54;;;;;;;1.60;1.10;;;8.70;82.50;;;;;;5037330;28;20037;-67
2024/02/24 09:30:20;;;;;;;2.22;1.10;;;8.60;82.60;;;;;;5042113;28;20476;-68
2024/02/24 09:32:45;;;;;;;1.05;0.82;;;8.70;82.60;;;;;;5028740;28;20033;-67
2024/02/24 09:35:11;;;;;;;1.05;0.73;;;8.60;82.30;;;;;;5034095;28;20124;-71
2024/02/24 09:37:37;;;;;;;1.40;0.98;;;8.60;82.30;;;;;;5037461;28;20033;-66
2024/02/24 09:40:05;;;;;;;1.20;0.70;;;8.50;82.20;;;;;;5055164;28;20033;-68
2024/02/24 09:42:33;;;;;;;0.98;0.73;;;8.50;82.30;;;;;;5034045;28;20061;-69
2024/02/24 09:45:02;;;;;;;1.50;1.05;;;8.60;82.20;;;;;;5029148;28;20034;-68
2024/02/24 09:47:28;;;;;;;0.90;0.60;;;8.60;82.00;;;;;;5027223;28;20050;-67
2024/02/24 09:49:57;;;;;;;1.83;1.30;;;8.60;81.70;;;;;;5028264;28;20022;-67
2024/02/24 09:52:22;;;;;;;1.55;0.70;;;8.60;82.20;;;;;;5031769;28;20446;-63
2024/02/24 09:54:48;;;;;;;3.50;0.80;;;8.50;81.10;;;;;;5030048;28;20042;-64
2024/02/24 09:57:19;;;;;;;0.50;0.40;;;8.30;80.70;;;;;;5032445;28;20037;-62
2024/02/24 09:59:45;;;;;;;0.93;0.63;;;8.20;80.80;;;;;;5009752;28;20040;-63
2024/02/24 10:02:14;;;;;;;1.95;0.50;;;8.00;81.10;;;;;;5030655;28;20057;-64
2024/02/24 10:04:40;;;;;;;0.77;0.77;;;8.00;81.50;;;;;;5036420;28;20029;-63
2024/02/24 10:07:06;;;;;;;2.75;0.88;;;7.90;81.80;;;;;;5035091;28;20037;-62
2024/02/24 10:09:33;;;;;;;1.30;0.57;;;7.80;81.90;;;;;;5032874;28;20171;-62
2024/02/24 10:12:00;;;;;;;0.95;0.50;;;7.80;82.20;;;;;;5035609;28;20087;-63
2024/02/24 10:14:29;;;;;;;0.60;0.45;;;7.80;82.40;;;;;;5028100;28;20045;-62
2024/02/24 10:16:56;;;;;;;1.17;0.77;;;7.80;82.50;;;;;;5034393;28;20029;-62
2024/02/24 10:19:22;;;;;;;0.60;0.50;;;7.70;82.70;;;;;;5032289;28;20080;-62
2024/02/24 10:21:47;;;;;;;1.05;0.80;;;7.70;82.90;;;;;;5028105;28;20057;-64
2024/02/24 10:24:13;;;;;;;4.88;1.23;;;7.70;83.10;;;;;;5034170;28;20053;-62
2024/02/24 10:26:39;;;;;;;2.50;1.00;;;7.70;83.20;;;;;;5034149;28;20024;-62
2024/02/24 10:29:07;;;;;;;2.72;1.10;;;7.70;83.30;;;;;;5037409;28;20452;-62
2024/02/24 10:31:36;;;;;;;1.65;1.10;;;7.70;83.40;;;;;;5038148;28;20033;-63
2024/02/24 10:34:03;;;;;;;0.70;0.70;;;7.70;83.50;;;;;;5035744;28;20031;-67
2024/02/24 10:36:30;;;;;;;1.00;0.70;;;7.70;83.60;;;;;;5018338;28;20025;-68
2024/02/24 10:38:57;;;;;;;1.20;0.85;;;7.60;83.60;;;;;;5036217;28;20045;-67
2024/02/24 10:41:23;;;;;;;1.77;1.23;;;7.60;83.80;;;;;;5035552;28;20477;-67
2024/02/24 10:43:50;;;;;;;1.13;0.70;;;7.70;84.00;;;;;;5038847;28;20033;-67
2024/02/24 10:46:16;;;;;;;2.13;1.13;;;7.60;84.00;;;;;;5029609;28;20057;-63
2024/02/24 10:48:42;;;;;;;1.23;1.13;;;7.70;84.10;;;;;;5023769;28;20037;-63
2024/02/24 10:51:12;;;;;;;4.40;1.42;;;7.70;84.00;;;;;;5015312;28;20018;-63
2024/02/24 10:53:39;;;;;;;1.23;0.82;;;7.80;83.90;;;;;;5022719;28;20421;-63
2024/02/24 10:56:06;;;;;;;1.20;0.90;;;7.80;83.60;;;;;;5026680;28;20025;-67
2024/02/24 10:58:35;;;;;;;1.90;1.27;;;7.80;83.60;;;;;;5037067;28;20041;-67
2024/02/24 11:01:00;;;;;;;1.45;1.17;;;8.00;83.70;;;;;;5037198;28;20056;-67
2024/02/24 11:03:26;;;;;;;1.92;1.45;;;8.10;83.40;;;;;;5039203;28;20514;-67
2024/02/24 11:05:52;;;;;;;2.55;1.17;;;8.20;83.20;;;;;;5033517;28;20120;-67
2024/02/24 11:08:37;;;;;;;1.70;1.60;;;8.20;83.10;;;;;;5041317;28;20021;-67
2024/02/24 11:11:07;;;;;;;2.97;1.33;;;8.30;83.00;;;;;;5031088;28;20025;-63
2024/02/24 11:13:33;;;;;;;1.17;0.90;;;8.30;83.20;;;;;;5023591;28;20021;-63
2024/02/24 11:15:59;;;;;;;1.40;1.08;;;8.30;83.20;;;;;;5014578;28;20036;-63
2024/02/24 11:18:52;;;;;;;2.53;1.40;;;8.30;83.10;;;;;;5015112;28;20042;-64
2024/02/24 11:21:19;;;;;;;2.78;1.05;;;8.30;83.20;;;;;;5021993;28;20109;-63
2024/02/24 11:23:47;;;;;;;1.42;1.00;;;8.30;83.40;;;;;;5024853;28;20404;-63
2024/02/24 11:26:16;;;;;;;1.67;1.10;;;8.30;83.10;;;;;;5019909;28;20480;-64
2024/02/24 11:28:58;;;;;;;2.10;1.02;;;8.40;83.30;;;;;;5022227;28;20113;-63
2024/02/24 11:31:28;;;;;;;2.53;1.17;;;8.50;82.90;;;;;;5030946;28;20104;-63
2024/02/24 11:34:10;;;;;;;1.23;0.82;;;8.50;82.70;;;;;;5031958;28;20026;-63
2024/02/24 11:36:40;;;;;;;1.30;1.00;;;8.50;82.60;;;;;;5023217;28;20064;-63
2024/02/24 11:39:08;;;;;;;1.35;0.75;;;8.60;82.70;;;;;;5024288;28;20494;-64
2024/02/24 11:41:36;;;;;;;1.25;0.70;;;8.80;82.50;;;;;;5019064;28;20041;-63
2024/02/24 11:44:02;;;;;;;2.40;1.35;;;9.00;82.20;;;;;;5049053;28;20038;-64
2024/02/24 11:46:28;;;;;;;0.95;0.85;;;9.20;81.00;;;;;;5031638;28;20072;-63
2024/02/24 11:48:54;;;;;;;1.40;1.10;;;9.30;80.80;;;;;;5030358;28;20126;-63
2024/02/24 11:51:23;;;;;;;1.42;1.10;;;9.60;80.60;;;;;;5028323;28;20030;-64
2024/02/24 11:53:51;;;;;;;1.13;0.55;;;9.90;79.30;;;;;;5022795;28;20412;-63
2024/02/24 11:56:17;;;;;;;1.73;1.10;;;10.00;78.30;;;;;;5024773;28;20041;-63
2024/02/24 11:58:43;;;;;;;1.35;0.90;;;10.00;78.10;;;;;;5033178;28;20033;-67
2024/02/24 12:01:11;;;;;;;1.15;0.90;;;10.00;76.90;;;;;;5036088;28;20029;-63
2024/02/24 12:03:37;;;;;;;0.82;0.80;;;9.80;76.90;;;;;;5021723;28;20365;-63
2024/02/24 12:06:05;;;;;;;0.68;0.28;;;9.70;77.40;;;;;;5022411;28;20095;-63
2024/02/24 12:08:31;;;;;;;2.30;0.82;;;9.60;77.40;;;;;;5036200;28;20033;-64
2024/02/24 12:10:57;;;;;;;0.88;0.73;;;9.50;77.00;;;;;;5025047;28;20565;-64
2024/02/24 12:13:24;;;;;;;5.38;1.15;;;9.30;76.10;;;;;;5027226;28;20028;-63
2024/02/24 12:15:50;;;;;;;5.05;0.75;;;9.20;76.40;;;;;;5036169;28;20370;-67
2024/02/24 12:18:16;;;;;;;1.33;1.10;;;9.20;76.80;;;;;;5034931;28;20040;-64
2024/02/24 12:20:43;;;;;;;1.48;0.65;;;9.30;76.00;;;;;;5029446;28;20057;-64
2024/02/24 12:23:10;;;;;;;0.40;0.40;;;9.40;74.50;;;;;;5023284;28;20029;-63
2024/02/24 12:25:36;;;;;;;5.13;1.02;;;9.50;74.30;;;;;;5026607;28;20140;-63
2024/02/24 12:28:04;;;;;;;2.97;0.70;;;9.50;74.20;;;;;;5033225;28;20033;-63
2024/02/24 12:30:37;;;;;;;0.98;0.32;;;9.50;73.50;;;;;;5029482;28;20029;-64
2024/02/24 12:33:04;;;;;;;0.73;0.73;;;9.50;73.30;;;;;;5030018;28;20029;-63
2024/02/24 12:35:30;;;;;;;3.20;0.50;;;9.40;73.00;;;;;;5024599;28;20060;-63
2024/02/24 12:37:56;;;;;;;0.30;0.30;;;9.40;72.50;;;;;;5027658;28;20143;-64
2024/02/24 12:40:29;;;;;;;0.75;0.52;;;9.30;73.20;;;;;;5030206;28;20041;-71
2024/02/24 12:42:56;;;;;;;1.25;0.40;;;9.30;73.10;;;;;;5030232;28;20465;-67
2024/02/24 12:45:22;;;;;;;0.95;0.57;;;9.20;72.50;;;;;;5040557;28;20033;-67
2024/02/24 12:47:51;;;;;;;1.73;0.77;;;9.20;73.10;;;;;;5035632;28;20052;-67
2024/02/24 12:50:21;;;;;;;1.48;0.60;;;9.10;73.20;;;;;;5040823;28;20045;-67
2024/02/24 12:52:47;;;;;;;1.13;0.60;;;8.90;73.20;;;;;;5038469;28;20076;-64
2024/02/24 12:55:13;;;;;;;0.40;0.30;;;8.80;73.90;;;;;;5026436;28;20120;-64